Terminal Aerodrome Forecast
Issued by NWS Greer, SC

Home | Current Version | Previous Version | Text Only | Print | Product List | Glossary On
Versions: 1 2 3 4 5 6 7 8 9 10 11 12 13 14 15 16 17 18 19 20 21 22 23 24 25 26 27 28 29 30 31 32 33 34 35 36 37 38 39 40 41 42 43 44 45
000
FTUS42 KGSP 172300
TAFAVL
TAF
KAVL 172333Z 1800/1824 18004KT P6SM SCT027 OVC035
     FM180300 33003KT 6SM BR SCT050
     FM180600 32003KT 3SM BR BKN021
     FM180700 32003KT 3SM BR BKN012
     FM181100 32004KT 2SM BR BKN012
     FM181500 34004KT P6SM BKN060
     FM181800 36003KT P6SM SCT060=

USA.gov is the U.S. government's official web portal to all federal, state and local government web resources and services.